Sao Cristovao, Brazil
Current Conditions -  °F | °C
As of 2:00 AM on Friday 31 Oct 2014 (Local Time) from SBAR Reporting Station
Light Rain Light Rain  
Wind Chill: 79°   Ceiling: Unl
Heat Index: 81°   Visibility: 4mi
Dew Point: 68°   Wind: 13mph
Humidity: 69%   Direction: 120°ESE
Pressure: 29.91"   Gusts: NA
Location:  11.01°S, 37.21°W
Report Text: SBAR 310500Z 12011KT 7000 -RA SCT016 SCT080 26/20 Q1013
Loading
Personal Weather Stations






























Interactive Weather Map
Tropical Storm Tracking
New forecast layout! Learn more

10-Day Weather Forecast

Advertisements
Track Severe Weather on mobile